sensor_id;sensor_type;location;lat;lon;timestamp;pressure;altitude;pressure_sealevel;temperature;humidity
24558;BME280;12726;49.148;8.582;2023-05-18T00:02:20;101107.97;;;8.08;84.12
24558;BME280;12726;49.148;8.582;2023-05-18T00:05:07;101101.47;;;8.02;84.24
24558;BME280;12726;49.148;8.582;2023-05-18T00:07:53;101105.50;;;7.98;84.50
24558;BME280;12726;49.148;8.582;2023-05-18T00:10:38;101098.19;;;7.92;84.41
24558;BME280;12726;49.148;8.582;2023-05-18T00:13:23;101087.81;;;7.89;84.66
24558;BME280;12726;49.148;8.582;2023-05-18T00:16:10;101094.56;;;7.85;84.57
24558;BME280;12726;49.148;8.582;2023-05-18T00:18:58;101090.75;;;7.79;84.75
24558;BME280;12726;49.148;8.582;2023-05-18T00:21:44;101082.38;;;7.74;85.00
24558;BME280;12726;49.148;8.582;2023-05-18T00:24:30;101084.25;;;7.74;85.44
24558;BME280;12726;49.148;8.582;2023-05-18T00:27:15;101083.22;;;7.75;85.60
24558;BME280;12726;49.148;8.582;2023-05-18T00:30:00;101083.22;;;7.75;85.21
24558;BME280;12726;49.148;8.582;2023-05-18T00:32:49;101086.38;;;7.78;84.67
24558;BME280;12726;49.148;8.582;2023-05-18T00:35:35;101087.56;;;7.76;83.43
24558;BME280;12726;49.148;8.582;2023-05-18T00:38:20;101085.88;;;7.75;82.75
24558;BME280;12726;49.148;8.582;2023-05-18T00:41:05;101086.94;;;7.74;82.04
24558;BME280;12726;49.148;8.582;2023-05-18T00:43:51;101081.56;;;7.74;82.30
24558;BME280;12726;49.148;8.582;2023-05-18T00:46:36;101080.19;;;7.78;82.59
24558;BME280;12726;49.148;8.582;2023-05-18T00:49:23;101085.22;;;7.81;82.45
24558;BME280;12726;49.148;8.582;2023-05-18T00:52:08;101082.53;;;7.81;82.24
24558;BME280;12726;49.148;8.582;2023-05-18T00:54:54;101086.69;;;7.83;82.70
24558;BME280;12726;49.148;8.582;2023-05-18T00:57:41;101091.41;;;7.81;82.02
24558;BME280;12726;49.148;8.582;2023-05-18T01:00:28;101086.84;;;7.82;82.22
24558;BME280;12726;49.148;8.582;2023-05-18T01:03:13;101089.19;;;7.85;82.48
24558;BME280;12726;49.148;8.582;2023-05-18T01:06:00;101083.16;;;7.83;81.72
24558;BME280;12726;49.148;8.582;2023-05-18T01:08:48;101084.16;;;7.82;81.60
24558;BME280;12726;49.148;8.582;2023-05-18T01:11:42;101082.53;;;7.81;82.04
24558;BME280;12726;49.148;8.582;2023-05-18T01:14:33;101084.59;;;7.71;82.14
24558;BME280;12726;49.148;8.582;2023-05-18T01:17:25;101072.25;;;7.62;83.00
24558;BME280;12726;49.148;8.582;2023-05-18T01:20:22;101087.97;;;7.65;83.08
24558;BME280;12726;49.148;8.582;2023-05-18T01:23:44;101080.16;;;7.55;83.49
24558;BME280;12726;49.148;8.582;2023-05-18T01:26:33;101084.22;;;7.51;84.35
24558;BME280;12726;49.148;8.582;2023-05-18T01:29:20;101086.06;;;7.51;84.76
24558;BME280;12726;49.148;8.582;2023-05-18T01:32:06;101077.00;;;7.52;84.47
24558;BME280;12726;49.148;8.582;2023-05-18T01:34:51;101076.50;;;7.48;84.18
24558;BME280;12726;49.148;8.582;2023-05-18T01:37:37;101084.56;;;7.48;84.47
24558;BME280;12726;49.148;8.582;2023-05-18T01:40:24;101080.88;;;7.49;83.31
24558;BME280;12726;49.148;8.582;2023-05-18T01:43:15;101076.88;;;7.45;83.59
24558;BME280;12726;49.148;8.582;2023-05-18T01:46:05;101074.38;;;7.43;83.77
24558;BME280;12726;49.148;8.582;2023-05-18T01:48:55;101080.06;;;7.40;84.36
24558;BME280;12726;49.148;8.582;2023-05-18T01:51:44;101067.88;;;7.38;84.85
24558;BME280;12726;49.148;8.582;2023-05-18T01:54:31;101065.00;;;7.39;84.89
24558;BME280;12726;49.148;8.582;2023-05-18T01:57:17;101068.53;;;7.40;84.75
24558;BME280;12726;49.148;8.582;2023-05-18T02:00:08;101069.53;;;7.39;84.69
24558;BME280;12726;49.148;8.582;2023-05-18T02:02:53;101073.09;;;7.31;84.75
24558;BME280;12726;49.148;8.582;2023-05-18T02:05:39;101063.56;;;7.29;85.23
24558;BME280;12726;49.148;8.582;2023-05-18T02:08:24;101063.41;;;7.30;85.22
24558;BME280;12726;49.148;8.582;2023-05-18T02:11:09;101060.06;;;7.28;84.60
24558;BME280;12726;49.148;8.582;2023-05-18T02:13:55;101065.56;;;7.27;85.17
24558;BME280;12726;49.148;8.582;2023-05-18T02:16:42;101063.06;;;7.25;85.21
24558;BME280;12726;49.148;8.582;2023-05-18T02:19:30;101060.38;;;7.25;85.49
24558;BME280;12726;49.148;8.582;2023-05-18T02:22:15;101057.53;;;7.27;85.62
24558;BME280;12726;49.148;8.582;2023-05-18T02:25:00;101057.91;;;7.24;85.52
24558;BME280;12726;49.148;8.582;2023-05-18T02:27:46;101062.59;;;7.22;85.00
24558;BME280;12726;49.148;8.582;2023-05-18T02:30:31;101059.63;;;7.17;84.97
24558;BME280;12726;49.148;8.582;2023-05-18T02:33:18;101052.59;;;7.16;84.26
24558;BME280;12726;49.148;8.582;2023-05-18T02:36:10;101059.13;;;7.13;83.70
24558;BME280;12726;49.148;8.582;2023-05-18T02:38:56;101059.47;;;7.10;83.60
24558;BME280;12726;49.148;8.582;2023-05-18T02:41:41;101061.13;;;7.11;83.53
24558;BME280;12726;49.148;8.582;2023-05-18T02:44:27;101055.97;;;7.10;83.42
24558;BME280;12726;49.148;8.582;2023-05-18T02:47:12;101064.84;;;7.10;83.50
24558;BME280;12726;49.148;8.582;2023-05-18T02:49:59;101052.44;;;7.09;83.42
24558;BME280;12726;49.148;8.582;2023-05-18T02:52:44;101057.59;;;7.11;83.30
24558;BME280;12726;49.148;8.582;2023-05-18T02:55:32;101051.28;;;7.03;83.80
24558;BME280;12726;49.148;8.582;2023-05-18T02:58:17;101061.81;;;7.05;83.83
24558;BME280;12726;49.148;8.582;2023-05-18T03:01:03;101066.53;;;7.03;83.71
24558;BME280;12726;49.148;8.582;2023-05-18T03:03:50;101059.38;;;6.95;84.43
24558;BME280;12726;49.148;8.582;2023-05-18T03:06:37;101058.53;;;6.95;85.06
24558;BME280;12726;49.148;8.582;2023-05-18T03:09:22;101056.84;;;6.94;85.14
24558;BME280;12726;49.148;8.582;2023-05-18T03:12:08;101062.72;;;6.89;85.63
24558;BME280;12726;49.148;8.582;2023-05-18T03:14:53;101059.03;;;6.90;85.76
24558;BME280;12726;49.148;8.582;2023-05-18T03:17:39;101058.38;;;6.88;86.37
24558;BME280;12726;49.148;8.582;2023-05-18T03:20:25;101060.41;;;6.86;86.72
24558;BME280;12726;49.148;8.582;2023-05-18T03:23:12;101060.56;;;6.85;86.95
24558;BME280;12726;49.148;8.582;2023-05-18T03:25:57;101067.59;;;6.86;86.89
24558;BME280;12726;49.148;8.582;2023-05-18T03:28:45;101064.91;;;6.86;87.12
24558;BME280;12726;49.148;8.582;2023-05-18T03:31:30;101066.06;;;6.83;87.21
24558;BME280;12726;49.148;8.582;2023-05-18T03:34:16;101070.13;;;6.79;87.30
24558;BME280;12726;49.148;8.582;2023-05-18T03:37:01;101069.94;;;6.81;87.78
24558;BME280;12726;49.148;8.582;2023-05-18T03:39:48;101059.25;;;6.81;87.43
24558;BME280;12726;49.148;8.582;2023-05-18T03:42:33;101064.41;;;6.82;87.48
24558;BME280;12726;49.148;8.582;2023-05-18T03:45:19;101073.63;;;6.80;87.36
24558;BME280;12726;49.148;8.582;2023-05-18T03:48:04;101073.97;;;6.77;87.08
24558;BME280;12726;49.148;8.582;2023-05-18T03:50:50;101076.63;;;6.77;87.60
24558;BME280;12726;49.148;8.582;2023-05-18T03:53:35;101071.66;;;6.74;87.56
24558;BME280;12726;49.148;8.582;2023-05-18T03:56:22;101082.50;;;6.72;87.65
24558;BME280;12726;49.148;8.582;2023-05-18T03:59:07;101076.31;;;6.72;87.87
24558;BME280;12726;49.148;8.582;2023-05-18T04:01:53;101093.06;;;6.74;87.55
24558;BME280;12726;49.148;8.582;2023-05-18T04:04:38;101084.50;;;6.70;86.74
24558;BME280;12726;49.148;8.582;2023-05-18T04:07:24;101088.00;;;6.79;86.50
24558;BME280;12726;49.148;8.582;2023-05-18T04:10:10;101087.84;;;6.80;86.04
24558;BME280;12726;49.148;8.582;2023-05-18T04:12:56;101097.03;;;6.86;85.06
24558;BME280;12726;49.148;8.582;2023-05-18T04:18:34;101093.94;;;7.05;83.00
24558;BME280;12726;49.148;8.582;2023-05-18T04:21:20;101103.97;;;7.11;83.26
24558;BME280;12726;49.148;8.582;2023-05-18T04:24:06;101104.78;;;7.12;82.93
24558;BME280;12726;49.148;8.582;2023-05-18T04:26:51;101101.59;;;7.24;82.23
24558;BME280;12726;49.148;8.582;2023-05-18T04:29:38;101105.75;;;7.27;81.69
24558;BME280;12726;49.148;8.582;2023-05-18T04:32:26;101100.19;;;7.36;79.77
24558;BME280;12726;49.148;8.582;2023-05-18T04:35:13;101108.66;;;7.48;78.60
24558;BME280;12726;49.148;8.582;2023-05-18T04:37:59;101112.69;;;7.52;79.00
24558;BME280;12726;49.148;8.582;2023-05-18T04:40:45;101114.91;;;7.71;78.39
24558;BME280;12726;49.148;8.582;2023-05-18T04:43:30;101110.69;;;7.77;77.89
24558;BME280;12726;49.148;8.582;2023-05-18T04:46:17;101110.50;;;7.78;78.23
24558;BME280;12726;49.148;8.582;2023-05-18T04:49:02;101111.34;;;7.79;78.52
24558;BME280;12726;49.148;8.582;2023-05-18T04:51:48;101110.81;;;7.83;78.34
24558;BME280;12726;49.148;8.582;2023-05-18T04:54:38;101107.78;;;7.86;78.80
24558;BME280;12726;49.148;8.582;2023-05-18T04:57:26;101120.47;;;7.93;77.98
24558;BME280;12726;49.148;8.582;2023-05-18T05:00:12;101123.09;;;8.01;77.92
24558;BME280;12726;49.148;8.582;2023-05-18T05:02:59;101123.38;;;8.06;77.67
24558;BME280;12726;49.148;8.582;2023-05-18T05:05:45;101120.81;;;8.12;77.29
24558;BME280;12726;49.148;8.582;2023-05-18T05:08:30;101121.94;;;8.18;77.56
24558;BME280;12726;49.148;8.582;2023-05-18T05:11:15;101118.56;;;8.24;76.92
24558;BME280;12726;49.148;8.582;2023-05-18T05:14:01;101124.53;;;8.34;76.95
24558;BME280;12726;49.148;8.582;2023-05-18T05:16:46;101126.50;;;8.40;76.26
24558;BME280;12726;49.148;8.582;2023-05-18T05:19:33;101135.50;;;8.47;75.86
24558;BME280;12726;49.148;8.582;2023-05-18T05:22:19;101134.97;;;8.52;75.94
24558;BME280;12726;49.148;8.582;2023-05-18T05:25:05;101129.16;;;8.63;75.34
24558;BME280;12726;49.148;8.582;2023-05-18T05:27:50;101129.34;;;8.76;74.15
24558;BME280;12726;49.148;8.582;2023-05-18T05:30:36;101130.47;;;8.82;73.31
24558;BME280;12726;49.148;8.582;2023-05-18T05:33:21;101123.34;;;8.89;73.48
24558;BME280;12726;49.148;8.582;2023-05-18T05:36:08;101127.34;;;8.93;73.38
24558;BME280;12726;49.148;8.582;2023-05-18T05:38:53;101122.16;;;9.06;73.09
24558;BME280;12726;49.148;8.582;2023-05-18T05:41:39;101122.00;;;9.22;73.03
24558;BME280;12726;49.148;8.582;2023-05-18T05:44:24;101129.19;;;9.36;72.77
24558;BME280;12726;49.148;8.582;2023-05-18T05:47:10;101123.59;;;9.53;71.13
24558;BME280;12726;49.148;8.582;2023-05-18T05:49:55;101135.53;;;9.79;69.78
24558;BME280;12726;49.148;8.582;2023-05-18T05:52:42;101128.50;;;10.00;69.78
24558;BME280;12726;49.148;8.582;2023-05-18T05:55:27;101127.56;;;10.29;67.96
24558;BME280;12726;49.148;8.582;2023-05-18T05:58:12;101118.66;;;10.49;67.19
24558;BME280;12726;49.148;8.582;2023-05-18T06:00:58;101127.66;;;10.63;66.45
24558;BME280;12726;49.148;8.582;2023-05-18T06:03:44;101129.63;;;10.76;65.75
24558;BME280;12726;49.148;8.582;2023-05-18T06:06:29;101141.97;;;10.91;65.26
24558;BME280;12726;49.148;8.582;2023-05-18T06:09:16;101120.94;;;11.08;64.72
24558;BME280;12726;49.148;8.582;2023-05-18T06:12:03;101126.50;;;11.41;63.40
24558;BME280;12726;49.148;8.582;2023-05-18T06:14:48;101129.03;;;11.49;63.63
24558;BME280;12726;49.148;8.582;2023-05-18T06:17:35;101121.91;;;11.83;62.82
24558;BME280;12726;49.148;8.582;2023-05-18T06:20:21;101132.19;;;12.20;60.85
24558;BME280;12726;49.148;8.582;2023-05-18T06:23:06;101134.91;;;12.40;59.83
24558;BME280;12726;49.148;8.582;2023-05-18T06:25:53;101134.69;;;12.54;57.66
24558;BME280;12726;49.148;8.582;2023-05-18T06:28:39;101139.69;;;12.77;57.42
24558;BME280;12726;49.148;8.582;2023-05-18T06:31:24;101134.03;;;12.99;55.99
24558;BME280;12726;49.148;8.582;2023-05-18T06:34:09;101131.28;;;13.31;55.00
24558;BME280;12726;49.148;8.582;2023-05-18T06:36:55;101137.78;;;13.75;53.96
24558;BME280;12726;49.148;8.582;2023-05-18T06:39:41;101135.50;;;14.10;53.50
24558;BME280;12726;49.148;8.582;2023-05-18T06:42:28;101130.56;;;14.38;51.98
24558;BME280;12726;49.148;8.582;2023-05-18T06:45:15;101136.47;;;14.78;51.40
24558;BME280;12726;49.148;8.582;2023-05-18T06:48:02;101142.28;;;14.82;51.35
24558;BME280;12726;49.148;8.582;2023-05-18T06:50:48;101136.94;;;15.37;49.75
24558;BME280;12726;49.148;8.582;2023-05-18T06:53:33;101134.91;;;15.69;47.55
24558;BME280;12726;49.148;8.582;2023-05-18T06:56:18;101136.84;;;15.80;47.88
24558;BME280;12726;49.148;8.582;2023-05-18T06:59:06;101133.59;;;16.19;46.62
24558;BME280;12726;49.148;8.582;2023-05-18T07:01:52;101133.09;;;16.11;46.68
24558;BME280;12726;49.148;8.582;2023-05-18T07:04:37;101137.50;;;16.23;45.91
24558;BME280;12726;49.148;8.582;2023-05-18T07:07:22;101128.81;;;16.44;45.35
24558;BME280;12726;49.148;8.582;2023-05-18T07:10:08;101125.94;;;16.69;44.37
24558;BME280;12726;49.148;8.582;2023-05-18T07:12:54;101130.66;;;16.62;44.68
24558;BME280;12726;49.148;8.582;2023-05-18T07:15:42;101122.00;;;17.00;43.62
24558;BME280;12726;49.148;8.582;2023-05-18T07:18:27;101131.81;;;17.25;43.80
24558;BME280;12726;49.148;8.582;2023-05-18T07:21:13;101136.63;;;17.46;42.94
24558;BME280;12726;49.148;8.582;2023-05-18T07:23:58;101137.34;;;17.41;42.24
24558;BME280;12726;49.148;8.582;2023-05-18T07:26:43;101132.16;;;17.40;42.49
24558;BME280;12726;49.148;8.582;2023-05-18T07:29:29;101126.44;;;17.41;42.50
24558;BME280;12726;49.148;8.582;2023-05-18T07:32:16;101129.94;;;17.25;42.50
24558;BME280;12726;49.148;8.582;2023-05-18T07:35:01;101131.50;;;16.98;42.55
24558;BME280;12726;49.148;8.582;2023-05-18T07:37:46;101132.44;;;16.68;42.76
24558;BME280;12726;49.148;8.582;2023-05-18T07:40:32;101129.34;;;17.00;42.89
24558;BME280;12726;49.148;8.582;2023-05-18T07:43:17;101129.72;;;16.68;43.02
24558;BME280;12726;49.148;8.582;2023-05-18T07:46:03;101129.41;;;16.58;44.27
24558;BME280;12726;49.148;8.582;2023-05-18T07:48:49;101124.41;;;16.97;43.11
24558;BME280;12726;49.148;8.582;2023-05-18T07:51:34;101112.69;;;16.96;42.28
24558;BME280;12726;49.148;8.582;2023-05-18T07:54:20;101127.09;;;17.08;43.83
24558;BME280;12726;49.148;8.582;2023-05-18T07:57:05;101116.44;;;17.07;42.76
24558;BME280;12726;49.148;8.582;2023-05-18T07:59:51;101114.94;;;16.88;43.59
24558;BME280;12726;49.148;8.582;2023-05-18T08:02:36;101124.63;;;16.95;43.88
24558;BME280;12726;49.148;8.582;2023-05-18T08:05:23;101122.97;;;17.17;43.73
24558;BME280;12726;49.148;8.582;2023-05-18T08:08:09;101123.88;;;17.23;43.84
24558;BME280;12726;49.148;8.582;2023-05-18T08:10:58;101125.38;;;17.54;42.86
24558;BME280;12726;49.148;8.582;2023-05-18T08:13:43;101132.50;;;17.83;42.18
24558;BME280;12726;49.148;8.582;2023-05-18T08:16:28;101116.59;;;17.64;42.24
24558;BME280;12726;49.148;8.582;2023-05-18T08:19:17;101116.53;;;17.87;41.37
24558;BME280;12726;49.148;8.582;2023-05-18T08:22:04;101122.81;;;18.32;40.88
24558;BME280;12726;49.148;8.582;2023-05-18T08:24:49;101120.81;;;18.28;40.27
24558;BME280;12726;49.148;8.582;2023-05-18T08:27:34;101114.06;;;18.30;40.29
24558;BME280;12726;49.148;8.582;2023-05-18T08:30:20;101114.31;;;18.46;40.30
24558;BME280;12726;49.148;8.582;2023-05-18T08:33:05;101106.63;;;18.76;40.63
24558;BME280;12726;49.148;8.582;2023-05-18T08:35:51;101102.34;;;19.18;39.28
24558;BME280;12726;49.148;8.582;2023-05-18T08:38:38;101104.19;;;19.51;37.46
24558;BME280;12726;49.148;8.582;2023-05-18T08:41:28;101104.47;;;19.77;38.07
24558;BME280;12726;49.148;8.582;2023-05-18T08:44:15;101101.41;;;19.95;37.58
24558;BME280;12726;49.148;8.582;2023-05-18T08:47:02;101103.03;;;19.47;37.33
24558;BME280;12726;49.148;8.582;2023-05-18T08:49:51;101109.72;;;19.40;37.91
24558;BME280;12726;49.148;8.582;2023-05-18T08:52:41;101100.50;;;19.02;38.18
24558;BME280;12726;49.148;8.582;2023-05-18T08:55:30;101097.97;;;18.62;39.54
24558;BME280;12726;49.148;8.582;2023-05-18T08:58:26;101097.53;;;19.04;38.18
24558;BME280;12726;49.148;8.582;2023-05-18T09:01:14;101092.78;;;19.16;38.15
24558;BME280;12726;49.148;8.582;2023-05-18T09:04:00;101086.50;;;19.37;37.46
24558;BME280;12726;49.148;8.582;2023-05-18T09:06:47;101086.78;;;19.58;36.84
24558;BME280;12726;49.148;8.582;2023-05-18T09:09:34;101093.22;;;19.46;37.56
24558;BME280;12726;49.148;8.582;2023-05-18T09:12:21;101079.91;;;19.55;37.46
24558;BME280;12726;49.148;8.582;2023-05-18T09:15:09;101073.25;;;19.68;38.70
24558;BME280;12726;49.148;8.582;2023-05-18T09:17:54;101085.06;;;19.73;37.45
24558;BME280;12726;49.148;8.582;2023-05-18T09:20:40;101076.22;;;19.66;36.90
24558;BME280;12726;49.148;8.582;2023-05-18T09:23:25;101080.03;;;19.92;37.42
24558;BME280;12726;49.148;8.582;2023-05-18T09:26:10;101076.03;;;20.00;37.14
24558;BME280;12726;49.148;8.582;2023-05-18T09:28:57;101068.19;;;19.81;36.98
24558;BME280;12726;49.148;8.582;2023-05-18T09:31:43;101076.06;;;19.51;37.31
24558;BME280;12726;49.148;8.582;2023-05-18T09:34:38;101065.69;;;19.75;35.52
24558;BME280;12726;49.148;8.582;2023-05-18T09:37:24;101073.03;;;19.74;35.92
24558;BME280;12726;49.148;8.582;2023-05-18T09:40:09;101074.16;;;20.05;35.48
24558;BME280;12726;49.148;8.582;2023-05-18T09:42:55;101072.41;;;19.67;36.56
24558;BME280;12726;49.148;8.582;2023-05-18T09:45:44;101067.31;;;19.76;35.20
24558;BME280;12726;49.148;8.582;2023-05-18T09:48:29;101066.13;;;20.25;35.58
24558;BME280;12726;49.148;8.582;2023-05-18T09:51:15;101061.50;;;21.00;35.08
24558;BME280;12726;49.148;8.582;2023-05-18T09:54:01;101070.84;;;21.61;33.08
24558;BME280;12726;49.148;8.582;2023-05-18T09:56:48;101063.53;;;21.87;33.39
24558;BME280;12726;49.148;8.582;2023-05-18T09:59:35;101060.84;;;20.83;33.60
24558;BME280;12726;49.148;8.582;2023-05-18T10:02:24;101053.88;;;20.28;35.16
24558;BME280;12726;49.148;8.582;2023-05-18T10:05:19;101049.47;;;20.27;34.75
24558;BME280;12726;49.148;8.582;2023-05-18T10:08:05;101046.38;;;19.38;36.39
24558;BME280;12726;49.148;8.582;2023-05-18T10:10:50;101044.69;;;20.39;35.12
24558;BME280;12726;49.148;8.582;2023-05-18T10:13:35;101042.63;;;20.56;31.34
24558;BME280;12726;49.148;8.582;2023-05-18T10:16:22;101048.91;;;20.52;31.20
24558;BME280;12726;49.148;8.582;2023-05-18T10:19:09;101055.44;;;19.92;31.64
24558;BME280;12726;49.148;8.582;2023-05-18T10:21:56;101047.81;;;19.94;32.50
24558;BME280;12726;49.148;8.582;2023-05-18T10:24:44;101062.69;;;19.54;34.19
24558;BME280;12726;49.148;8.582;2023-05-18T10:27:34;101056.09;;;19.50;34.53
24558;BME280;12726;49.148;8.582;2023-05-18T10:30:20;101048.09;;;19.92;33.41
24558;BME280;12726;49.148;8.582;2023-05-18T10:33:07;101052.97;;;20.49;34.18
24558;BME280;12726;49.148;8.582;2023-05-18T10:35:55;101040.19;;;20.28;33.55
24558;BME280;12726;49.148;8.582;2023-05-18T10:38:42;101051.09;;;20.55;32.75
24558;BME280;12726;49.148;8.582;2023-05-18T10:41:30;101044.97;;;20.75;32.71
24558;BME280;12726;49.148;8.582;2023-05-18T10:44:15;101045.09;;;20.53;34.51
24558;BME280;12726;49.148;8.582;2023-05-18T10:47:03;101044.25;;;20.52;32.22
24558;BME280;12726;49.148;8.582;2023-05-18T10:49:49;101038.97;;;20.83;32.11
24558;BME280;12726;49.148;8.582;2023-05-18T10:52:36;101037.75;;;20.00;34.37
24558;BME280;12726;49.148;8.582;2023-05-18T10:55:22;101041.66;;;20.78;33.67
24558;BME280;12726;49.148;8.582;2023-05-18T10:58:11;101035.78;;;20.96;33.42
24558;BME280;12726;49.148;8.582;2023-05-18T11:00:59;101034.59;;;21.34;32.52
24558;BME280;12726;49.148;8.582;2023-05-18T11:03:47;101027.69;;;21.16;33.90
24558;BME280;12726;49.148;8.582;2023-05-18T11:06:34;101019.69;;;21.15;32.30
24558;BME280;12726;49.148;8.582;2023-05-18T11:09:24;101026.31;;;20.71;32.99
24558;BME280;12726;49.148;8.582;2023-05-18T11:12:11;101018.25;;;21.69;32.03
24558;BME280;12726;49.148;8.582;2023-05-18T11:14:57;101017.13;;;20.93;32.77
24558;BME280;12726;49.148;8.582;2023-05-18T11:17:42;101023.38;;;20.41;32.50
24558;BME280;12726;49.148;8.582;2023-05-18T11:20:28;101024.41;;;19.76;35.33
24558;BME280;12726;49.148;8.582;2023-05-18T11:23:13;101015.66;;;19.74;34.37
24558;BME280;12726;49.148;8.582;2023-05-18T11:26:03;101021.19;;;20.38;34.36
24558;BME280;12726;49.148;8.582;2023-05-18T11:28:51;101010.03;;;20.97;33.11
24558;BME280;12726;49.148;8.582;2023-05-18T11:31:43;101017.38;;;21.48;32.67
24558;BME280;12726;49.148;8.582;2023-05-18T11:34:39;101014.72;;;21.06;32.10
24558;BME280;12726;49.148;8.582;2023-05-18T11:37:46;101015.47;;;20.45;33.49
24558;BME280;12726;49.148;8.582;2023-05-18T11:40:45;101002.28;;;20.79;33.18
24558;BME280;12726;49.148;8.582;2023-05-18T11:43:32;100989.34;;;20.69;33.93
24558;BME280;12726;49.148;8.582;2023-05-18T11:46:20;100993.63;;;20.18;34.07
24558;BME280;12726;49.148;8.582;2023-05-18T11:49:06;100998.97;;;20.35;34.69
24558;BME280;12726;49.148;8.582;2023-05-18T11:52:12;101000.28;;;20.69;33.09
24558;BME280;12726;49.148;8.582;2023-05-18T11:54:59;101003.03;;;20.69;31.91
24558;BME280;12726;49.148;8.582;2023-05-18T11:57:48;101000.94;;;20.81;32.86
24558;BME280;12726;49.148;8.582;2023-05-18T12:00:36;100996.78;;;20.74;32.24
24558;BME280;12726;49.148;8.582;2023-05-18T12:03:22;101002.63;;;20.97;32.31
24558;BME280;12726;49.148;8.582;2023-05-18T12:06:08;100999.13;;;21.02;32.60
24558;BME280;12726;49.148;8.582;2023-05-18T12:08:54;100987.19;;;20.71;33.30
24558;BME280;12726;49.148;8.582;2023-05-18T12:11:40;100991.69;;;20.97;32.40
24558;BME280;12726;49.148;8.582;2023-05-18T12:14:26;100989.19;;;20.91;33.18
24558;BME280;12726;49.148;8.582;2023-05-18T12:17:14;100995.09;;;21.25;33.12
24558;BME280;12726;49.148;8.582;2023-05-18T12:20:00;100989.28;;;21.11;33.00
24558;BME280;12726;49.148;8.582;2023-05-18T12:22:47;101005.00;;;20.79;32.35
24558;BME280;12726;49.148;8.582;2023-05-18T12:25:32;100980.16;;;20.90;32.08
24558;BME280;12726;49.148;8.582;2023-05-18T12:28:18;100977.50;;;21.10;32.82
24558;BME280;12726;49.148;8.582;2023-05-18T12:31:03;100971.44;;;20.98;33.04
24558;BME280;12726;49.148;8.582;2023-05-18T12:33:53;100976.50;;;21.27;32.55
24558;BME280;12726;49.148;8.582;2023-05-18T12:36:50;100975.16;;;21.34;32.09
24558;BME280;12726;49.148;8.582;2023-05-18T12:39:36;100968.53;;;21.25;33.06
24558;BME280;12726;49.148;8.582;2023-05-18T12:42:21;100970.19;;;21.21;33.36
24558;BME280;12726;49.148;8.582;2023-05-18T12:45:09;100961.19;;;21.36;33.91
24558;BME280;12726;49.148;8.582;2023-05-18T12:47:54;100964.50;;;21.53;33.63
24558;BME280;12726;49.148;8.582;2023-05-18T12:50:46;100953.50;;;21.23;33.18
24558;BME280;12726;49.148;8.582;2023-05-18T12:53:40;100950.66;;;21.07;32.88
24558;BME280;12726;49.148;8.582;2023-05-18T12:56:26;100955.91;;;20.57;33.75
24558;BME280;12726;49.148;8.582;2023-05-18T12:59:16;100943.97;;;20.78;32.81
24558;BME280;12726;49.148;8.582;2023-05-18T13:02:02;100953.28;;;20.77;33.54
24558;BME280;12726;49.148;8.582;2023-05-18T13:05:00;100940.41;;;20.78;33.21
24558;BME280;12726;49.148;8.582;2023-05-18T13:07:46;100940.31;;;20.52;33.80
24558;BME280;12726;49.148;8.582;2023-05-18T13:10:32;100946.41;;;20.69;34.58
24558;BME280;12726;49.148;8.582;2023-05-18T13:13:18;100940.44;;;20.83;33.50
24558;BME280;12726;49.148;8.582;2023-05-18T13:16:04;100937.75;;;20.36;33.81
24558;BME280;12726;49.148;8.582;2023-05-18T13:18:55;100937.69;;;20.30;34.05
24558;BME280;12726;49.148;8.582;2023-05-18T13:21:41;100933.06;;;19.99;35.00
24558;BME280;12726;49.148;8.582;2023-05-18T13:24:27;100935.47;;;20.32;34.87
24558;BME280;12726;49.148;8.582;2023-05-18T13:27:12;100936.09;;;20.35;34.59
24558;BME280;12726;49.148;8.582;2023-05-18T13:29:58;100926.91;;;20.61;33.89
24558;BME280;12726;49.148;8.582;2023-05-18T13:32:43;100921.94;;;20.11;34.55
24558;BME280;12726;49.148;8.582;2023-05-18T13:35:29;100922.34;;;20.24;35.08
24558;BME280;12726;49.148;8.582;2023-05-18T13:38:14;100918.94;;;20.12;34.66
24558;BME280;12726;49.148;8.582;2023-05-18T13:41:01;100927.22;;;20.17;34.16
24558;BME280;12726;49.148;8.582;2023-05-18T13:43:46;100927.16;;;20.12;34.41
24558;BME280;12726;49.148;8.582;2023-05-18T13:46:31;100926.41;;;20.22;33.21
24558;BME280;12726;49.148;8.582;2023-05-18T13:49:20;100923.06;;;20.10;32.72
24558;BME280;12726;49.148;8.582;2023-05-18T13:52:05;100924.22;;;19.82;33.62
24558;BME280;12726;49.148;8.582;2023-05-18T13:54:51;100919.84;;;19.81;34.52
24558;BME280;12726;49.148;8.582;2023-05-18T13:57:38;100911.88;;;19.79;34.33
24558;BME280;12726;49.148;8.582;2023-05-18T14:00:23;100905.41;;;19.90;34.62
24558;BME280;12726;49.148;8.582;2023-05-18T14:03:09;100912.13;;;20.10;32.22
24558;BME280;12726;49.148;8.582;2023-05-18T14:05:54;100903.69;;;19.79;33.09
24558;BME280;12726;49.148;8.582;2023-05-18T14:08:40;100895.34;;;19.59;33.60
24558;BME280;12726;49.148;8.582;2023-05-18T14:11:25;100895.88;;;19.61;33.21
24558;BME280;12726;49.148;8.582;2023-05-18T14:14:12;100895.72;;;19.73;33.10
24558;BME280;12726;49.148;8.582;2023-05-18T14:16:57;100889.63;;;19.61;33.40
24558;BME280;12726;49.148;8.582;2023-05-18T14:19:43;100894.53;;;19.37;31.76
24558;BME280;12726;49.148;8.582;2023-05-18T14:22:28;100880.28;;;19.57;31.98
24558;BME280;12726;49.148;8.582;2023-05-18T14:25:13;100872.34;;;19.55;32.64
24558;BME280;12726;49.148;8.582;2023-05-18T14:27:59;100873.00;;;19.67;33.39
24558;BME280;12726;49.148;8.582;2023-05-18T14:30:45;100875.16;;;19.65;34.28
24558;BME280;12726;49.148;8.582;2023-05-18T14:33:31;100878.78;;;19.76;33.72
24558;BME280;12726;49.148;8.582;2023-05-18T14:36:16;100870.88;;;19.74;33.89
24558;BME280;12726;49.148;8.582;2023-05-18T14:39:01;100876.56;;;19.41;34.78
24558;BME280;12726;49.148;8.582;2023-05-18T14:41:47;100874.03;;;19.61;34.01